Time;durP1;ratioP1;P1;durP2;ratioP2;P2;SDS_P1;SDS_P2;PMS_P1;PMS_P2;Temp;Humidity;BMP_temperature;BMP_pressure;BME280_temperature;BME280_humidity;BME280_pressure;Samples;Min_cycle;Max_cycle;Signal;HPM_P1;HPM_P2
2023/05/20 00:00:12;;;;;;;44.50;36.80;;;30.60;85.40;;;;;;1944839;71;21162;-85
2023/05/20 00:02:43;;;;;;;46.35;37.03;;;30.60;85.20;;;;;;1956548;71;21128;-83
2023/05/20 00:05:15;;;;;;;46.30;36.88;;;30.50;85.30;;;;;;1944924;72;21200;-83
2023/05/20 00:07:46;;;;;;;50.12;38.48;;;30.50;85.60;;;;;;1941337;73;21183;-83
2023/05/20 00:10:17;;;;;;;48.30;38.58;;;30.50;85.70;;;;;;1931609;72;21658;-82
2023/05/20 00:12:49;;;;;;;54.65;38.38;;;30.50;86.00;;;;;;1939109;73;21168;-84
2023/05/20 00:15:20;;;;;;;49.50;38.05;;;30.60;85.90;;;;;;1978258;71;21105;-82
2023/05/20 00:17:51;;;;;;;52.48;36.63;;;30.60;85.90;;;;;;1938929;73;21216;-83
2023/05/20 00:20:22;;;;;;;46.68;36.73;;;30.60;85.90;;;;;;1964816;71;21178;-83
2023/05/20 00:22:54;;;;;;;48.33;37.83;;;30.70;86.00;;;;;;1942948;72;21143;-84
2023/05/20 00:25:25;;;;;;;44.98;36.50;;;30.80;85.80;;;;;;1958239;72;21115;-82
2023/05/20 00:27:56;;;;;;;50.03;36.15;;;30.80;85.10;;;;;;1948359;71;21193;-85
2023/05/20 00:30:27;;;;;;;50.03;36.73;;;30.80;85.00;;;;;;1956920;72;21660;-83
2023/05/20 00:32:58;;;;;;;47.78;35.83;;;30.90;84.20;;;;;;1983970;71;21107;-83
2023/05/20 00:35:31;;;;;;;50.03;35.63;;;30.90;84.30;;;;;;1930814;72;21228;-83
2023/05/20 00:38:03;;;;;;;46.35;34.90;;;30.90;84.30;;;;;;1940285;73;21051;-84
2023/05/20 00:40:34;;;;;;;47.75;35.92;;;30.90;84.60;;;;;;1951501;72;21658;-84
2023/05/20 00:43:05;;;;;;;50.43;35.30;;;30.90;84.30;;;;;;1960291;72;21132;-84
2023/05/20 00:45:38;;;;;;;46.23;36.30;;;30.90;84.40;;;;;;1948424;72;21119;-70
2023/05/20 00:48:09;;;;;;;47.65;37.03;;;30.90;84.30;;;;;;1958209;72;21176;-70
2023/05/20 00:50:41;;;;;;;44.45;35.55;;;31.00;84.10;;;;;;1955969;72;21081;-73
2023/05/20 00:53:13;;;;;;;125.72;42.75;;;31.10;84.40;;;;;;1950975;72;21155;-71
2023/05/20 00:55:44;;;;;;;47.75;36.28;;;31.10;84.80;;;;;;1947187;72;21712;-70
2023/05/20 00:58:15;;;;;;;47.15;34.85;;;31.20;84.20;;;;;;1943583;72;21208;-71
2023/05/20 01:00:47;;;;;;;46.02;35.33;;;31.30;83.80;;;;;;1948704;72;21174;-71
2023/05/20 01:03:19;;;;;;;48.48;35.50;;;31.30;83.50;;;;;;1944624;72;21606;-74
2023/05/20 01:05:50;;;;;;;49.83;34.33;;;31.40;83.40;;;;;;1977849;71;21170;-72
2023/05/20 01:08:25;;;;;;;43.92;32.95;;;31.50;83.20;;;;;;1981163;71;21112;-70
2023/05/20 01:11:17;;;;;;;47.03;32.90;;;31.50;83.20;;;;;;1960362;72;21186;-73
2023/05/20 01:13:53;;;;;;;41.50;31.97;;;31.60;82.70;;;;;;1957014;72;21102;-72
2023/05/20 01:16:25;;;;;;;48.42;35.35;;;31.70;82.20;;;;;;1962933;72;21148;-71
2023/05/20 01:18:58;;;;;;;54.93;33.33;;;31.80;81.50;;;;;;1970706;72;21139;-71
2023/05/20 01:21:31;;;;;;;50.52;33.33;;;31.80;81.90;;;;;;1953400;72;21147;-72
2023/05/20 01:24:04;;;;;;;49.42;34.30;;;31.90;81.80;;;;;;1921259;72;21151;-72
2023/05/20 01:26:37;;;;;;;48.80;32.60;;;32.00;82.20;;;;;;1943665;72;21226;-72
2023/05/20 01:29:07;;;;;;;42.00;31.17;;;32.10;82.00;;;;;;1946489;71;21126;-72
2023/05/20 01:31:39;;;;;;;48.50;32.48;;;32.20;81.40;;;;;;1951205;72;21156;-71
2023/05/20 01:34:12;;;;;;;41.37;32.75;;;32.30;81.10;;;;;;1967102;72;21119;-72
2023/05/20 01:36:46;;;;;;;49.95;33.08;;;32.30;80.80;;;;;;1960538;72;21210;-71
2023/05/20 01:39:18;;;;;;;41.63;32.10;;;32.30;80.60;;;;;;1945489;72;21143;-72
2023/05/20 01:41:50;;;;;;;46.88;32.85;;;32.40;80.80;;;;;;1958269;71;21139;-69
2023/05/20 01:44:22;;;;;;;42.00;31.73;;;32.40;80.80;;;;;;1936559;72;21112;-71
2023/05/20 01:46:53;;;;;;;42.78;32.30;;;32.40;80.10;;;;;;1947117;73;21216;-69
2023/05/20 01:49:25;;;;;;;43.23;30.90;;;32.50;80.40;;;;;;1964065;71;21152;-69
2023/05/20 01:51:56;;;;;;;40.03;30.05;;;32.60;80.20;;;;;;1934060;73;21154;-68
2023/05/20 01:54:27;;;;;;;53.20;31.25;;;32.70;79.50;;;;;;1969187;71;21115;-69
2023/05/20 01:56:58;;;;;;;44.55;30.02;;;32.80;79.40;;;;;;1996325;71;21490;-69
2023/05/20 01:59:32;;;;;;;35.92;30.52;;;32.90;78.80;;;;;;2000098;71;21104;-68
2023/05/20 02:02:03;;;;;;;41.40;28.83;;;33.00;78.20;;;;;;1972144;71;21069;-71
2023/05/20 02:04:34;;;;;;;36.35;29.60;;;33.10;77.70;;;;;;1951318;71;21109;-70
2023/05/20 02:07:05;;;;;;;39.58;29.55;;;33.20;77.30;;;;;;1939564;72;21134;-72
2023/05/20 02:09:37;;;;;;;45.38;30.35;;;33.30;76.70;;;;;;1986305;70;22347;-71
2023/05/20 02:12:15;;;;;;;35.60;29.07;;;33.30;76.90;;;;;;1967721;71;21619;-70
2023/05/20 02:14:46;;;;;;;37.38;27.55;;;33.40;76.40;;;;;;1974094;71;21157;-70
2023/05/20 02:17:38;;;;;;;37.38;27.77;;;33.50;75.00;;;;;;1972589;71;21219;-70
2023/05/20 02:20:27;;;;;;;36.38;27.90;;;33.60;75.60;;;;;;1976975;71;21647;-70
2023/05/20 02:23:07;;;;;;;38.42;27.07;;;33.60;74.50;;;;;;1952098;73;21165;-70
2023/05/20 02:25:49;;;;;;;35.52;27.30;;;33.60;74.30;;;;;;1974727;71;21212;-69
2023/05/20 02:28:21;;;;;;;37.85;26.60;;;33.70;73.90;;;;;;1937445;73;21204;-71
2023/05/20 02:30:52;;;;;;;41.02;27.37;;;33.90;73.40;;;;;;1973277;70;21531;-70
2023/05/20 02:33:23;;;;;;;34.30;27.65;;;34.00;73.60;;;;;;1984101;71;21127;-70
2023/05/20 02:35:55;;;;;;;33.42;27.27;;;34.00;73.30;;;;;;1936866;72;21482;-72
2023/05/20 02:38:35;;;;;;;36.50;26.73;;;34.10;73.40;;;;;;1939875;72;21203;-71
2023/05/20 02:41:06;;;;;;;37.00;28.15;;;34.30;72.80;;;;;;1959964;72;21571;-70
2023/05/20 02:43:37;;;;;;;38.28;27.07;;;34.30;73.10;;;;;;1968454;71;21608;-71
2023/05/20 02:46:09;;;;;;;33.23;26.23;;;34.40;71.80;;;;;;1949459;72;21171;-70
2023/05/20 02:48:40;;;;;;;41.90;28.55;;;34.40;71.00;;;;;;1979272;71;21129;-69
2023/05/20 02:51:30;;;;;;;32.73;27.67;;;34.40;71.00;;;;;;1945345;72;21114;-70
2023/05/20 02:54:01;;;;;;;36.35;26.68;;;34.40;71.70;;;;;;1953535;72;21550;-71
2023/05/20 02:56:33;;;;;;;35.00;27.20;;;34.40;71.30;;;;;;1957132;72;21158;-71
2023/05/20 02:59:06;;;;;;;40.85;27.58;;;34.50;71.10;;;;;;1982730;71;21060;-70
2023/05/20 03:01:39;;;;;;;37.83;27.85;;;34.60;71.00;;;;;;1946166;73;21090;-72
2023/05/20 03:04:27;;;;;;;49.75;27.27;;;34.60;70.80;;;;;;1935261;72;21260;-70
2023/05/20 03:06:58;;;;;;;38.50;26.17;;;34.60;70.30;;;;;;1958296;72;21120;-69
2023/05/20 03:09:30;;;;;;;42.03;26.25;;;34.70;70.60;;;;;;1962932;71;21151;-70
2023/05/20 03:12:01;;;;;;;32.65;25.00;;;34.80;69.30;;;;;;1963794;72;21654;-70
2023/05/20 03:14:32;;;;;;;34.60;25.25;;;34.80;69.60;;;;;;1936242;72;21156;-70
2023/05/20 03:17:03;;;;;;;32.40;24.98;;;34.90;69.50;;;;;;1945976;72;21213;-70
2023/05/20 03:19:35;;;;;;;38.00;25.88;;;35.00;69.10;;;;;;1951626;71;21194;-70
2023/05/20 03:22:10;;;;;;;32.17;24.82;;;35.00;69.30;;;;;;1960700;71;21201;-70
2023/05/20 03:24:47;;;;;;;34.20;26.30;;;35.20;67.40;;;;;;1953885;72;21274;-70
2023/05/20 03:27:15;;;;;;;38.15;24.95;;;35.20;68.20;;;;;;1936256;73;21603;-70
2023/05/20 03:29:47;;;;;;;34.83;24.23;;;35.30;67.60;;;;;;1963491;72;21527;-70
2023/05/20 03:32:19;;;;;;;37.75;24.15;;;35.30;67.60;;;;;;1976804;72;21051;-69
2023/05/20 03:34:53;;;;;;;34.58;23.85;;;35.20;67.40;;;;;;1955645;72;21146;-69
2023/05/20 03:37:25;;;;;;;32.20;23.25;;;35.20;66.60;;;;;;1939756;73;21111;-69
2023/05/20 03:39:57;;;;;;;31.65;24.02;;;35.30;67.60;;;;;;1964404;72;21185;-69
2023/05/20 03:42:28;;;;;;;35.03;24.45;;;35.30;67.00;;;;;;1963003;72;21132;-69
2023/05/20 03:45:03;;;;;;;;;;;35.40;66.70;;;;;;1960600;72;21508;-69
2023/05/20 03:47:35;;;;;;;32.05;22.70;;;35.50;67.70;;;;;;1959200;72;20163;-71
2023/05/20 03:50:07;;;;;;;29.55;23.22;;;35.60;66.40;;;;;;1955833;71;21229;-70
2023/05/20 03:55:24;;;;;;;30.27;22.65;;;35.80;65.40;;;;;;1951938;71;21112;-69
2023/05/20 03:58:14;;;;;;;34.60;23.32;;;35.80;65.50;;;;;;1936810;72;21221;-70
2023/05/20 04:00:46;;;;;;;29.63;21.90;;;35.80;65.20;;;;;;1965485;71;21152;-71
2023/05/20 04:03:17;;;;;;;28.10;22.52;;;36.00;64.40;;;;;;1935346;73;21108;-70
2023/05/20 04:05:50;;;;;;;26.62;22.35;;;36.00;65.60;;;;;;1932983;73;21237;-70
2023/05/20 04:08:24;;;;;;;31.68;23.22;;;36.10;64.70;;;;;;1919655;72;21682;-71
2023/05/20 04:10:57;;;;;;;34.20;22.45;;;36.20;63.30;;;;;;1944935;72;21715;-69
2023/05/20 04:13:32;;;;;;;36.23;24.02;;;36.10;63.90;;;;;;1949778;73;21775;-69
2023/05/20 04:16:04;;;;;;;33.02;24.15;;;36.10;65.40;;;;;;1948799;71;21747;-71
2023/05/20 04:18:37;;;;;;;32.20;23.73;;;36.20;64.60;;;;;;1937752;72;21192;-70
2023/05/20 04:21:08;;;;;;;28.38;23.55;;;36.20;64.10;;;;;;1938842;73;21264;-69
2023/05/20 04:23:40;;;;;;;34.95;23.55;;;36.00;63.80;;;;;;1959332;71;21668;-70
2023/05/20 04:26:11;;;;;;;29.05;23.70;;;36.00;64.80;;;;;;1988205;71;21159;-68
2023/05/20 04:28:43;;;;;;;36.50;22.90;;;36.10;65.00;;;;;;1954366;71;21208;-69
2023/05/20 04:31:14;;;;;;;29.65;22.45;;;36.20;64.40;;;;;;1967622;71;21119;-70
2023/05/20 04:33:51;;;;;;;34.58;24.25;;;36.40;63.50;;;;;;1957045;72;21136;-71
2023/05/20 04:36:27;;;;;;;31.80;22.85;;;36.50;63.20;;;;;;1945959;72;21071;-70
2023/05/20 04:38:56;;;;;;;28.35;22.93;;;36.40;61.70;;;;;;1957246;72;21063;-70
2023/05/20 04:41:38;;;;;;;32.15;23.12;;;36.40;62.70;;;;;;1975943;71;21550;-70
2023/05/20 04:44:09;;;;;;;29.85;24.05;;;36.40;62.70;;;;;;1972272;71;21574;-70
2023/05/20 04:46:41;;;;;;;29.85;22.27;;;36.40;63.30;;;;;;1953818;72;21259;-70
2023/05/20 04:49:14;;;;;;;36.03;23.35;;;36.40;62.60;;;;;;1967238;72;21139;-70
2023/05/20 04:51:46;;;;;;;29.27;22.40;;;36.50;61.20;;;;;;1930495;73;21528;-70
2023/05/20 04:54:19;;;;;;;35.80;23.45;;;36.60;59.30;;;;;;1949013;72;21111;-71
2023/05/20 04:56:50;;;;;;;33.20;24.20;;;36.70;59.90;;;;;;1901233;74;21126;-70
2023/05/20 04:59:21;;;;;;;29.40;22.67;;;36.70;60.00;;;;;;1940989;72;21201;-70
2023/05/20 05:02:03;;;;;;;30.35;21.65;;;36.70;60.20;;;;;;1957094;72;21107;-70
2023/05/20 05:04:34;;;;;;;31.23;22.82;;;36.80;60.50;;;;;;1934893;73;21670;-70
2023/05/20 05:07:24;;;;;;;28.77;20.60;;;36.80;61.10;;;;;;1939395;73;21092;-70
2023/05/20 05:10:14;;;;;;;27.70;20.60;;;36.80;60.70;;;;;;1937906;72;21461;-69
2023/05/20 05:12:47;;;;;;;23.67;19.95;;;36.90;58.30;;;;;;1971234;72;21070;-70
2023/05/20 05:15:32;;;;;;;31.82;21.85;;;36.90;57.60;;;;;;1922296;73;21256;-71
2023/05/20 05:18:04;;;;;;;26.68;21.45;;;37.00;58.40;;;;;;1986625;71;21550;-68
2023/05/20 05:20:36;;;;;;;33.63;19.90;;;37.00;58.30;;;;;;1972897;72;21108;-71
2023/05/20 05:23:08;;;;;;;27.67;20.37;;;37.00;58.10;;;;;;1952645;72;21643;-70
2023/05/20 05:25:39;;;;;;;23.32;18.67;;;37.00;58.50;;;;;;1953876;72;21061;-71
2023/05/20 05:28:10;;;;;;;29.27;20.02;;;37.10;56.00;;;;;;1981756;71;21257;-70
2023/05/20 05:30:42;;;;;;;23.50;18.67;;;37.10;56.20;;;;;;1954281;71;21185;-70
2023/05/20 05:33:14;;;;;;;27.93;19.55;;;37.20;57.20;;;;;;1937155;72;21200;-71
2023/05/20 05:35:45;;;;;;;29.63;18.90;;;37.30;56.00;;;;;;1938876;72;21148;-70
2023/05/20 05:38:17;;;;;;;29.18;18.48;;;37.30;56.10;;;;;;1957226;72;21665;-69
2023/05/20 05:40:49;;;;;;;30.37;19.30;;;37.30;56.70;;;;;;1940229;72;21224;-70
2023/05/20 05:43:25;;;;;;;23.20;17.65;;;37.40;56.00;;;;;;1954029;72;21212;-70
2023/05/20 05:46:11;;;;;;;23.75;16.00;;;37.40;56.70;;;;;;1966667;71;21208;-69
2023/05/20 05:48:44;;;;;;;31.52;17.35;;;37.40;54.70;;;;;;1947034;72;21220;-71
2023/05/20 05:51:16;;;;;;;32.00;16.97;;;37.40;54.30;;;;;;1949465;72;21096;-71
2023/05/20 05:53:47;;;;;;;27.67;16.23;;;37.50;54.00;;;;;;1964416;71;21593;-71
2023/05/20 05:56:18;;;;;;;32.65;16.60;;;37.50;52.60;;;;;;1950693;72;21135;-71
2023/05/20 05:58:50;;;;;;;29.45;18.12;;;37.50;52.50;;;;;;1939171;71;21206;-70
2023/05/20 06:01:22;;;;;;;24.72;17.00;;;37.50;54.30;;;;;;1943440;72;21110;-71
2023/05/20 06:03:54;;;;;;;32.50;18.07;;;37.50;54.90;;;;;;1980260;71;21147;-71
2023/05/20 06:06:26;;;;;;;25.95;18.17;;;37.50;54.50;;;;;;1924603;73;21166;-70
2023/05/20 06:08:57;;;;;;;30.72;20.45;;;37.50;54.60;;;;;;1951587;72;21542;-71
2023/05/20 06:11:28;;;;;;;30.25;19.17;;;37.60;55.40;;;;;;1950226;71;21097;-71
2023/05/20 06:13:59;;;;;;;23.95;19.10;;;37.70;55.50;;;;;;1968108;71;21099;-72
2023/05/20 06:16:30;;;;;;;24.00;18.60;;;37.70;54.90;;;;;;1916321;72;21759;-71
2023/05/20 06:19:04;;;;;;;25.80;18.75;;;37.70;54.70;;;;;;1944593;72;21164;-72
2023/05/20 06:24:36;;;;;;;;;;;37.60;55.30;;;;;;1904104;75;21131;-69
2023/05/20 06:27:07;;;;;;;28.38;18.95;;;37.60;55.50;;;;;;1904305;74;20416;-71
2023/05/20 06:29:39;;;;;;;29.65;18.73;;;37.60;54.70;;;;;;1977768;72;21129;-72
2023/05/20 06:32:11;;;;;;;26.60;19.73;;;37.50;55.10;;;;;;1953997;71;21186;-70
2023/05/20 06:34:43;;;;;;;27.87;20.27;;;37.50;55.60;;;;;;1974390;71;21103;-70
2023/05/20 06:37:16;;;;;;;26.60;18.90;;;37.50;55.90;;;;;;1968975;72;21621;-71
2023/05/20 06:39:52;;;;;;;23.83;18.30;;;37.60;56.00;;;;;;1941850;72;21194;-71
2023/05/20 06:42:23;;;;;;;27.00;18.70;;;37.60;55.40;;;;;;1961104;71;21591;-70
2023/05/20 06:44:54;;;;;;;24.92;20.50;;;37.70;56.00;;;;;;1959570;71;21209;-71
2023/05/20 06:47:26;;;;;;;26.57;20.92;;;37.60;56.10;;;;;;1969113;72;21154;-70
2023/05/20 06:49:58;;;;;;;23.75;19.15;;;37.70;55.80;;;;;;1953846;72;21828;-71
2023/05/20 06:52:29;;;;;;;24.15;18.27;;;37.70;55.00;;;;;;1956423;72;21177;-71
2023/05/20 06:55:00;;;;;;;24.55;19.65;;;37.70;54.40;;;;;;1954955;72;21133;-72
2023/05/20 06:57:32;;;;;;;28.42;18.20;;;37.70;54.40;;;;;;1960503;72;21101;-73
2023/05/20 07:00:05;;;;;;;27.65;19.92;;;37.70;54.80;;;;;;1940526;72;21092;-72
2023/05/20 07:02:37;;;;;;;22.90;18.32;;;37.70;54.40;;;;;;1944888;71;21121;-72
2023/05/20 07:05:15;;;;;;;27.67;19.35;;;37.70;54.90;;;;;;1950382;72;21153;-71
2023/05/20 07:07:47;;;;;;;27.02;19.20;;;37.60;55.00;;;;;;1935327;71;21145;-70
2023/05/20 07:10:22;;;;;;;27.02;20.72;;;37.60;55.60;;;;;;1959441;72;21645;-71
2023/05/20 07:13:08;;;;;;;24.87;18.85;;;37.60;55.20;;;;;;1941487;71;21149;-71
2023/05/20 07:15:39;;;;;;;26.80;19.37;;;37.60;56.00;;;;;;1932040;72;21122;-71
2023/05/20 07:18:11;;;;;;;26.40;17.77;;;37.70;55.20;;;;;;1938210;73;21428;-70
2023/05/20 07:20:44;;;;;;;20.17;17.82;;;37.70;54.20;;;;;;1944573;72;21125;-71
2023/05/20 07:23:15;;;;;;;26.50;17.92;;;37.70;54.70;;;;;;1933265;71;21571;-71
2023/05/20 07:25:46;;;;;;;26.95;17.60;;;37.80;53.90;;;;;;1967706;72;21205;-70
2023/05/20 07:28:17;;;;;;;33.45;19.35;;;37.80;54.10;;;;;;1962718;72;21175;-71
2023/05/20 07:30:49;;;;;;;23.38;18.07;;;37.80;53.70;;;;;;1969213;71;21144;-70
2023/05/20 07:33:22;;;;;;;25.08;17.87;;;37.80;53.20;;;;;;1980229;72;21065;-72
2023/05/20 07:35:53;;;;;;;27.10;18.25;;;37.80;54.30;;;;;;1947502;72;21211;-71
2023/05/20 07:38:25;;;;;;;25.62;18.87;;;37.70;54.40;;;;;;1955588;71;21172;-71
2023/05/20 07:41:25;;;;;;;25.82;18.27;;;37.70;54.50;;;;;;1941801;72;21090;-71
2023/05/20 07:43:57;;;;;;;29.70;17.52;;;37.60;53.70;;;;;;1958587;71;21842;-72
2023/05/20 07:46:28;;;;;;;26.33;17.20;;;37.60;54.70;;;;;;1938056;72;21105;-70
2023/05/20 07:48:59;;;;;;;27.30;17.85;;;37.60;54.60;;;;;;1947499;72;21433;-70
2023/05/20 07:51:32;;;;;;;33.50;17.85;;;37.50;54.00;;;;;;1951189;72;21612;-71
2023/05/20 07:54:03;;;;;;;31.68;17.95;;;37.40;53.50;;;;;;1966557;72;21135;-70
2023/05/20 07:56:38;;;;;;;22.70;16.48;;;37.40;53.60;;;;;;1958466;72;21215;-70
2023/05/20 07:59:09;;;;;;;26.35;17.87;;;37.40;53.90;;;;;;1955494;72;21152;-71
2023/05/20 08:04:25;;;;;;;23.40;16.55;;;37.50;53.70;;;;;;1916310;72;21156;-71
2023/05/20 08:06:56;;;;;;;22.45;16.50;;;37.50;54.30;;;;;;1929103;72;21147;-70
2023/05/20 08:09:28;;;;;;;26.23;17.82;;;37.60;53.50;;;;;;1926902;72;21120;-71
2023/05/20 08:11:59;;;;;;;23.77;16.42;;;37.60;53.40;;;;;;1935862;72;21100;-70
2023/05/20 08:14:30;;;;;;;23.05;17.90;;;37.60;54.00;;;;;;1936572;73;21225;-71
2023/05/20 08:17:01;;;;;;;28.30;18.87;;;37.60;53.70;;;;;;1927037;72;21653;-71
2023/05/20 08:19:33;;;;;;;22.93;17.00;;;37.60;53.70;;;;;;1924524;73;21120;-70
2023/05/20 08:22:05;;;;;;;23.10;17.48;;;37.70;54.10;;;;;;1930421;72;21508;-71
2023/05/20 08:24:36;;;;;;;27.45;18.35;;;37.70;53.10;;;;;;1913323;73;21129;-71
2023/05/20 08:27:07;;;;;;;21.80;16.37;;;37.80;53.30;;;;;;1929204;72;21655;-70
2023/05/20 08:29:39;;;;;;;22.40;14.50;;;37.80;52.50;;;;;;1916982;73;21160;-71
2023/05/20 08:32:10;;;;;;;23.73;15.55;;;37.90;51.90;;;;;;1896922;72;21105;-71
2023/05/20 08:34:53;;;;;;;25.25;16.07;;;37.90;52.10;;;;;;1918738;73;22425;-71
2023/05/20 08:37:24;;;;;;;23.38;15.88;;;37.90;52.00;;;;;;1931827;72;21149;-70
2023/05/20 08:39:55;;;;;;;26.82;16.23;;;37.90;52.00;;;;;;1905438;73;21497;-71
2023/05/20 08:42:27;;;;;;;25.92;16.95;;;37.90;52.20;;;;;;1919228;72;21181;-70
2023/05/20 08:45:00;;;;;;;27.77;15.35;;;37.80;52.30;;;;;;1924887;73;21233;-70
2023/05/20 08:47:52;;;;;;;24.85;16.60;;;37.70;52.90;;;;;;1905576;73;21573;-71
2023/05/20 08:50:41;;;;;;;25.97;16.07;;;37.70;53.80;;;;;;1906082;73;21218;-71
2023/05/20 08:53:14;;;;;;;21.93;16.32;;;37.70;52.90;;;;;;1913885;73;21096;-71
2023/05/20 08:55:47;;;;;;;24.25;16.32;;;37.70;53.10;;;;;;1901616;73;21515;-71
2023/05/20 08:58:23;;;;;;;25.65;14.68;;;37.60;53.70;;;;;;1901912;74;21168;-72
2023/05/20 09:00:51;;;;;;;23.65;16.17;;;37.60;53.40;;;;;;1885177;74;21196;-71
2023/05/20 09:03:25;;;;;;;25.35;16.02;;;37.60;53.90;;;;;;1915359;73;21136;-71
2023/05/20 09:06:07;;;;;;;30.72;17.10;;;37.50;53.60;;;;;;1913247;73;21175;-75
2023/05/20 09:08:39;;;;;;;25.45;16.12;;;37.60;52.90;;;;;;1912002;74;21191;-71
2023/05/20 09:11:11;;;;;;;24.20;15.32;;;37.50;53.10;;;;;;1913890;73;21169;-71
2023/05/20 09:13:43;;;;;;;28.60;16.97;;;37.60;53.00;;;;;;1905555;73;21137;-70
2023/05/20 09:16:14;;;;;;;21.33;15.13;;;37.50;52.90;;;;;;1896048;73;21756;-70
2023/05/20 09:18:46;;;;;;;28.67;15.68;;;37.50;52.50;;;;;;1898320;73;21169;-71
2023/05/20 09:21:17;;;;;;;21.42;15.90;;;37.40;53.10;;;;;;1889980;74;21564;-72
2023/05/20 09:24:02;;;;;;;18.25;15.32;;;37.40;53.00;;;;;;1905998;74;21459;-70
2023/05/20 09:26:44;;;;;;;21.77;15.75;;;37.40;53.20;;;;;;1927358;72;21071;-71
2023/05/20 09:29:16;;;;;;;21.42;15.30;;;37.40;53.60;;;;;;1911450;73;21226;-70
2023/05/20 09:32:06;;;;;;;19.42;15.18;;;37.30;53.60;;;;;;1902127;73;21129;-71
2023/05/20 09:34:48;;;;;;;22.85;16.10;;;37.30;53.90;;;;;;1880997;73;21638;-71
2023/05/20 09:37:38;;;;;;;25.75;14.65;;;37.30;53.50;;;;;;1944470;72;21239;-72
2023/05/20 09:40:28;;;;;;;24.82;15.90;;;37.30;52.90;;;;;;1933462;73;21709;-72
2023/05/20 09:43:07;;;;;;;20.90;15.68;;;37.20;52.50;;;;;;1930285;73;21131;-71
2023/05/20 09:45:43;;;;;;;22.35;14.87;;;37.30;53.00;;;;;;1899303;73;21159;-71
2023/05/20 09:48:21;;;;;;;21.52;14.98;;;37.30;52.80;;;;;;1893643;74;21182;-71
2023/05/20 09:51:14;;;;;;;23.85;15.05;;;37.30;53.40;;;;;;1926602;73;21206;-70
2023/05/20 09:53:45;;;;;;;25.15;16.30;;;37.20;52.90;;;;;;1933415;72;21135;-71
2023/05/20 09:56:21;;;;;;;23.32;15.48;;;37.20;53.50;;;;;;1886236;73;21164;-71
2023/05/20 09:59:08;;;;;;;27.02;14.45;;;37.20;53.00;;;;;;1925216;73;21129;-72
2023/05/20 10:01:41;;;;;;;22.67;15.20;;;37.20;53.10;;;;;;1932324;72;21101;-71
2023/05/20 10:04:14;;;;;;;21.17;14.75;;;37.20;53.00;;;;;;1933303;73;21151;-73
2023/05/20 10:06:48;;;;;;;26.23;14.58;;;37.20;53.60;;;;;;1896026;73;21193;-73
2023/05/20 10:09:37;;;;;;;20.97;14.55;;;37.20;53.20;;;;;;1931321;73;21228;-72
2023/05/20 10:12:22;;;;;;;29.42;15.72;;;37.10;52.40;;;;;;1901097;74;21184;-72
2023/05/20 10:15:10;;;;;;;21.70;15.28;;;37.10;54.00;;;;;;1894670;73;21480;-72
2023/05/20 10:17:47;;;;;;;21.45;14.78;;;37.10;52.30;;;;;;1913812;73;21123;-72
2023/05/20 10:20:19;;;;;;;20.57;15.38;;;37.10;52.20;;;;;;1914269;73;21253;-72
2023/05/20 10:22:59;;;;;;;21.02;15.45;;;37.10;53.00;;;;;;1911343;73;21149;-72
2023/05/20 10:25:30;;;;;;;18.27;14.83;;;37.00;53.00;;;;;;1908969;73;21640;-72
2023/05/20 10:28:07;;;;;;;23.80;16.12;;;37.00;53.30;;;;;;1889961;73;21250;-71
2023/05/20 10:30:40;;;;;;;22.07;16.17;;;37.00;53.10;;;;;;1902277;73;21069;-71
2023/05/20 10:33:15;;;;;;;26.15;15.80;;;37.00;53.50;;;;;;1908199;73;21232;-72
2023/05/20 10:35:53;;;;;;;26.45;16.37;;;36.90;53.50;;;;;;1920198;73;21144;-71
2023/05/20 10:38:25;;;;;;;21.42;15.48;;;36.90;53.10;;;;;;1912912;73;21203;-85
2023/05/20 10:41:01;;;;;;;21.77;15.78;;;36.90;53.70;;;;;;1894723;74;21154;-85
2023/05/20 10:43:29;;;;;;;20.43;15.40;;;36.90;53.60;;;;;;1949059;71;21224;-84
2023/05/20 10:46:04;;;;;;;27.22;16.87;;;36.90;53.20;;;;;;1928128;73;21105;-83
2023/05/20 10:48:55;;;;;;;24.63;15.75;;;36.80;53.40;;;;;;1939216;71;21055;-84
2023/05/20 10:51:38;;;;;;;21.20;15.30;;;36.80;53.50;;;;;;1938224;72;21169;-83
2023/05/20 10:54:10;;;;;;;26.40;16.80;;;36.80;53.70;;;;;;1869404;75;21126;-83
2023/05/20 10:56:44;;;;;;;21.52;15.65;;;36.70;53.90;;;;;;1888006;73;21092;-82
2023/05/20 10:59:16;;;;;;;26.70;15.32;;;36.70;54.00;;;;;;1937469;72;21087;-81
2023/05/20 11:01:47;;;;;;;23.83;17.02;;;36.70;54.30;;;;;;1888855;74;21138;-83
2023/05/20 11:04:19;;;;;;;22.55;17.40;;;36.60;55.00;;;;;;1943782;72;21156;-83
2023/05/20 11:07:08;;;;;;;27.40;17.32;;;36.60;54.90;;;;;;1933276;73;21159;-83
2023/05/20 11:09:47;;;;;;;30.12;18.20;;;36.50;55.00;;;;;;1928842;72;21127;-81
2023/05/20 11:12:38;;;;;;;26.05;17.48;;;36.50;55.20;;;;;;1943373;73;21144;-81
2023/05/20 11:15:12;;;;;;;26.70;18.07;;;36.50;55.10;;;;;;1945829;73;21168;-81
2023/05/20 11:18:01;;;;;;;27.25;20.05;;;36.50;55.50;;;;;;1945636;72;21585;-81
2023/05/20 11:20:37;;;;;;;26.65;18.52;;;36.40;55.40;;;;;;1937294;72;21068;-81
2023/05/20 11:23:07;;;;;;;22.98;16.95;;;36.40;55.60;;;;;;1949306;73;21081;-80
2023/05/20 11:25:39;;;;;;;25.27;17.82;;;36.40;55.70;;;;;;1918574;73;21088;-80
2023/05/20 11:28:16;;;;;;;24.52;16.77;;;36.30;55.80;;;;;;1939615;72;21171;-81
2023/05/20 11:30:51;;;;;;;26.10;16.75;;;36.30;55.80;;;;;;1948070;73;21127;-82
2023/05/20 11:33:21;;;;;;;26.33;17.82;;;36.30;55.60;;;;;;1948027;72;21060;-85
2023/05/20 11:35:53;;;;;;;26.85;17.17;;;36.20;55.70;;;;;;1943563;72;21278;-85
2023/05/20 11:38:27;;;;;;;21.10;17.70;;;36.20;55.90;;;;;;1941997;72;21132;-86
2023/05/20 11:40:58;;;;;;;27.17;17.37;;;36.20;56.10;;;;;;1944102;72;21113;-83
2023/05/20 11:43:30;;;;;;;26.02;17.27;;;36.20;56.00;;;;;;1948037;73;21153;-85
2023/05/20 11:46:02;;;;;;;24.27;16.40;;;36.10;56.00;;;;;;1945757;72;21182;-84
2023/05/20 11:48:33;;;;;;;28.38;17.42;;;36.10;56.10;;;;;;1942608;72;21152;-84
2023/05/20 11:51:06;;;;;;;23.87;17.50;;;36.00;56.30;;;;;;1924491;73;21108;-84
2023/05/20 11:53:46;;;;;;;30.40;17.95;;;36.10;56.20;;;;;;1915559;73;21143;-85
2023/05/20 11:56:23;;;;;;;28.10;18.05;;;36.00;56.50;;;;;;1930397;72;21230;-86
2023/05/20 11:58:57;;;;;;;22.87;18.17;;;36.00;56.70;;;;;;1905816;75;21097;-87
2023/05/20 12:01:32;;;;;;;23.22;17.50;;;36.00;56.70;;;;;;1938181;73;21223;-86
2023/05/20 12:04:06;;;;;;;26.50;17.00;;;35.90;56.50;;;;;;1916294;73;21133;-85
2023/05/20 12:06:38;;;;;;;20.57;16.35;;;35.90;56.50;;;;;;1949394;71;21189;-85
2023/05/20 12:09:10;;;;;;;22.58;17.80;;;35.90;56.70;;;;;;1920889;72;21153;-86
2023/05/20 12:11:43;;;;;;;26.27;17.02;;;35.90;56.80;;;;;;1929751;73;21084;-85
2023/05/20 12:14:17;;;;;;;28.70;18.35;;;35.80;57.10;;;;;;1924052;74;21196;-85
2023/05/20 12:16:48;;;;;;;26.77;17.42;;;35.80;57.20;;;;;;1935726;73;21210;-85
2023/05/20 12:19:19;;;;;;;28.75;17.60;;;35.80;57.30;;;;;;1883273;74;21196;-87
2023/05/20 12:22:02;;;;;;;31.85;17.05;;;35.80;57.30;;;;;;1956169;71;21977;-86
2023/05/20 12:24:51;;;;;;;24.32;17.15;;;35.70;57.40;;;;;;1870977;74;21141;-84
2023/05/20 12:27:29;;;;;;;24.72;17.90;;;35.70;57.50;;;;;;1921201;72;21221;-86
2023/05/20 12:30:02;;;;;;;26.17;17.32;;;35.70;57.50;;;;;;1954150;71;21070;-85
2023/05/20 12:32:33;;;;;;;24.55;16.73;;;35.60;57.40;;;;;;1932854;72;21157;-86
2023/05/20 12:35:04;;;;;;;27.55;18.50;;;35.60;57.50;;;;;;1953829;71;21181;-86
2023/05/20 12:37:36;;;;;;;23.80;17.90;;;35.60;57.80;;;;;;1946467;71;21142;-85
2023/05/20 12:40:08;;;;;;;29.98;18.27;;;35.50;57.70;;;;;;1889830;73;21180;-85
2023/05/20 12:42:59;;;;;;;29.05;18.15;;;35.50;57.70;;;;;;1906945;73;21629;-86
2023/05/20 12:45:32;;;;;;;22.85;16.73;;;35.50;57.80;;;;;;1888299;74;21100;-86
2023/05/20 12:48:21;;;;;;;27.90;18.12;;;35.50;58.00;;;;;;1922396;73;21065;-88
2023/05/20 12:51:11;;;;;;;26.33;17.62;;;35.40;58.00;;;;;;1932567;73;21109;-87
2023/05/20 12:53:47;;;;;;;26.40;17.52;;;35.40;58.30;;;;;;1927293;73;21261;-85
2023/05/20 12:56:34;;;;;;;24.60;17.35;;;35.40;58.30;;;;;;1882986;74;21172;-86
2023/05/20 12:59:02;;;;;;;24.87;17.90;;;35.40;58.30;;;;;;1857258;75;21636;-85
2023/05/20 13:01:37;;;;;;;25.68;18.07;;;35.40;58.20;;;;;;1909487;73;21237;-85
2023/05/20 13:04:09;;;;;;;26.55;16.90;;;35.30;58.20;;;;;;1889112;73;21197;-87
2023/05/20 13:06:47;;;;;;;25.92;17.52;;;35.30;58.10;;;;;;1884092;74;21118;-87
2023/05/20 13:09:18;;;;;;;24.47;17.90;;;35.30;58.40;;;;;;1919933;73;21078;-88
2023/05/20 13:11:49;;;;;;;24.98;16.62;;;35.20;58.50;;;;;;1955037;73;21716;-86